Terminal Aerodrome Forecast
Issued by NWS Portland, OR

Home | Current Version | Previous Version | Text Only | Print | Product List | Glossary On
Versions: 1 2 3 4 5 6 7 8 9 10 11 12 13 14 15 16 17 18
000
FTUS46 KPQR 250217 AAA
TAFEUG
TAF AMD
KEUG 250217Z 2502/2524 36008KT 5SM -RA OVC006
     FM250500 14003KT 6SM BR BKN006 BKN100
     FM250800 14006KT 4SM BR SCT007 BKN012 BKN100
     FM251300 17009KT 5SM BR SCT050 BKN100
     FM251800 17015G25KT P6SM -RA OVC050=

USA.gov is the U.S. government's official web portal to all federal, state and local government web resources and services.